sensor_id;sensor_type;location;lat;lon;timestamp;temperature;humidity
68215;DHT22;55036;52.138;5.236;2023-08-24T00:01:38;18.70;77.50
68215;DHT22;55036;52.138;5.236;2023-08-24T00:04:05;18.60;78.10
68215;DHT22;55036;52.138;5.236;2023-08-24T00:06:32;18.50;78.80
68215;DHT22;55036;52.138;5.236;2023-08-24T00:08:59;18.40;79.00
68215;DHT22;55036;52.138;5.236;2023-08-24T00:11:26;18.40;80.10
68215;DHT22;55036;52.138;5.236;2023-08-24T00:13:53;18.20;80.00
68215;DHT22;55036;52.138;5.236;2023-08-24T00:16:20;18.20;80.10
68215;DHT22;55036;52.138;5.236;2023-08-24T00:18:48;18.30;79.60
68215;DHT22;55036;52.138;5.236;2023-08-24T00:21:15;18.40;79.80
68215;DHT22;55036;52.138;5.236;2023-08-24T00:23:50;18.30;80.80
68215;DHT22;55036;52.138;5.236;2023-08-24T00:26:17;18.30;80.20
68215;DHT22;55036;52.138;5.236;2023-08-24T00:28:44;18.40;80.00
68215;DHT22;55036;52.138;5.236;2023-08-24T00:31:12;18.40;80.40
68215;DHT22;55036;52.138;5.236;2023-08-24T00:33:39;18.30;80.90
68215;DHT22;55036;52.138;5.236;2023-08-24T00:36:06;18.20;81.10
68215;DHT22;55036;52.138;5.236;2023-08-24T00:38:33;18.10;81.50
68215;DHT22;55036;52.138;5.236;2023-08-24T00:41:00;18.20;81.30
68215;DHT22;55036;52.138;5.236;2023-08-24T01:20:03;18.40;81.10
68215;DHT22;55036;52.138;5.236;2023-08-24T01:23:56;18.60;81.10
68215;DHT22;55036;52.138;5.236;2023-08-24T01:25:53;18.70;80.80
68215;DHT22;55036;52.138;5.236;2023-08-24T01:28:20;18.70;80.60
68215;DHT22;55036;52.138;5.236;2023-08-24T01:30:48;18.60;80.40
68215;DHT22;55036;52.138;5.236;2023-08-24T01:33:15;18.60;80.30
68215;DHT22;55036;52.138;5.236;2023-08-24T01:35:42;18.50;81.10
68215;DHT22;55036;52.138;5.236;2023-08-24T01:38:09;18.50;80.70
68215;DHT22;55036;52.138;5.236;2023-08-24T01:40:48;18.60;80.90
68215;DHT22;55036;52.138;5.236;2023-08-24T01:43:18;18.70;80.80
68215;DHT22;55036;52.138;5.236;2023-08-24T01:46:07;18.80;80.70
68215;DHT22;55036;52.138;5.236;2023-08-24T01:48:35;18.80;80.60
68215;DHT22;55036;52.138;5.236;2023-08-24T01:51:03;18.80;80.60
68215;DHT22;55036;52.138;5.236;2023-08-24T01:53:31;18.90;80.80
68215;DHT22;55036;52.138;5.236;2023-08-24T01:55:58;18.90;80.70
68215;DHT22;55036;52.138;5.236;2023-08-24T01:58:25;18.90;80.40
68215;DHT22;55036;52.138;5.236;2023-08-24T02:00:52;18.90;80.20
68215;DHT22;55036;52.138;5.236;2023-08-24T02:03:19;18.90;80.10
68215;DHT22;55036;52.138;5.236;2023-08-24T02:05:46;18.70;80.60
68215;DHT22;55036;52.138;5.236;2023-08-24T02:08:12;18.70;80.80
68215;DHT22;55036;52.138;5.236;2023-08-24T02:10:39;18.60;81.20
68215;DHT22;55036;52.138;5.236;2023-08-24T02:13:06;18.60;80.80
68215;DHT22;55036;52.138;5.236;2023-08-24T02:15:33;18.70;80.80
68215;DHT22;55036;52.138;5.236;2023-08-24T02:18:00;18.60;81.30
68215;DHT22;55036;52.138;5.236;2023-08-24T02:20:27;18.70;81.20
68215;DHT22;55036;52.138;5.236;2023-08-24T02:22:53;18.80;81.50
68215;DHT22;55036;52.138;5.236;2023-08-24T02:25:20;18.80;82.50
68215;DHT22;55036;52.138;5.236;2023-08-24T02:27:47;18.80;81.50
68215;DHT22;55036;52.138;5.236;2023-08-24T02:30:16;18.90;81.70
68215;DHT22;55036;52.138;5.236;2023-08-24T02:32:42;18.70;82.40
68215;DHT22;55036;52.138;5.236;2023-08-24T02:35:10;18.60;82.70
68215;DHT22;55036;52.138;5.236;2023-08-24T02:37:37;18.60;82.70
68215;DHT22;55036;52.138;5.236;2023-08-24T02:40:04;18.60;83.30
68215;DHT22;55036;52.138;5.236;2023-08-24T02:42:31;18.60;82.80
68215;DHT22;55036;52.138;5.236;2023-08-24T02:44:59;18.70;82.80
68215;DHT22;55036;52.138;5.236;2023-08-24T02:47:25;18.70;82.80
68215;DHT22;55036;52.138;5.236;2023-08-24T02:49:52;18.70;83.90
68215;DHT22;55036;52.138;5.236;2023-08-24T02:52:19;18.50;83.90
68215;DHT22;55036;52.138;5.236;2023-08-24T02:54:48;18.50;84.60
68215;DHT22;55036;52.138;5.236;2023-08-24T02:57:15;18.60;84.20
68215;DHT22;55036;52.138;5.236;2023-08-24T02:59:42;18.60;84.20
68215;DHT22;55036;52.138;5.236;2023-08-24T03:02:11;18.70;83.90
68215;DHT22;55036;52.138;5.236;2023-08-24T03:04:38;18.70;83.60
68215;DHT22;55036;52.138;5.236;2023-08-24T03:07:04;18.80;83.30
68215;DHT22;55036;52.138;5.236;2023-08-24T03:09:34;18.80;83.20
68215;DHT22;55036;52.138;5.236;2023-08-24T03:12:02;18.80;83.10
68215;DHT22;55036;52.138;5.236;2023-08-24T03:14:29;18.60;83.60
68215;DHT22;55036;52.138;5.236;2023-08-24T03:16:56;18.50;84.00
68215;DHT22;55036;52.138;5.236;2023-08-24T03:19:22;18.30;85.40
68215;DHT22;55036;52.138;5.236;2023-08-24T03:21:49;18.40;84.80
68215;DHT22;55036;52.138;5.236;2023-08-24T03:24:16;18.40;84.50
68215;DHT22;55036;52.138;5.236;2023-08-24T03:26:43;18.50;84.70
68215;DHT22;55036;52.138;5.236;2023-08-24T03:29:10;18.40;85.30
68215;DHT22;55036;52.138;5.236;2023-08-24T03:31:36;18.30;85.30
68215;DHT22;55036;52.138;5.236;2023-08-24T03:34:03;18.30;85.10
68215;DHT22;55036;52.138;5.236;2023-08-24T03:36:30;18.30;85.60
68215;DHT22;55036;52.138;5.236;2023-08-24T03:38:57;18.30;85.40
68215;DHT22;55036;52.138;5.236;2023-08-24T03:41:24;18.40;85.30
68215;DHT22;55036;52.138;5.236;2023-08-24T03:43:51;18.40;85.00
68215;DHT22;55036;52.138;5.236;2023-08-24T03:46:17;18.40;84.80
68215;DHT22;55036;52.138;5.236;2023-08-24T03:48:44;18.40;84.80
68215;DHT22;55036;52.138;5.236;2023-08-24T03:51:11;18.50;84.80
68215;DHT22;55036;52.138;5.236;2023-08-24T03:53:38;18.40;84.90
68215;DHT22;55036;52.138;5.236;2023-08-24T03:56:05;18.20;85.50
68215;DHT22;55036;52.138;5.236;2023-08-24T03:58:31;18.10;85.60
68215;DHT22;55036;52.138;5.236;2023-08-24T04:00:58;18.00;86.40
68215;DHT22;55036;52.138;5.236;2023-08-24T04:03:25;18.00;86.80
68215;DHT22;55036;52.138;5.236;2023-08-24T04:05:52;17.90;86.50
68215;DHT22;55036;52.138;5.236;2023-08-24T04:08:19;18.00;86.30
68215;DHT22;55036;52.138;5.236;2023-08-24T04:10:46;18.10;86.30
68215;DHT22;55036;52.138;5.236;2023-08-24T04:13:12;18.20;86.00
68215;DHT22;55036;52.138;5.236;2023-08-24T04:15:39;18.10;85.50
68215;DHT22;55036;52.138;5.236;2023-08-24T04:18:06;18.10;85.80
68215;DHT22;55036;52.138;5.236;2023-08-24T04:20:33;18.10;86.00
68215;DHT22;55036;52.138;5.236;2023-08-24T04:23:01;17.90;86.70
68215;DHT22;55036;52.138;5.236;2023-08-24T04:25:31;17.90;87.10
68215;DHT22;55036;52.138;5.236;2023-08-24T04:28:01;17.80;86.90
68215;DHT22;55036;52.138;5.236;2023-08-24T04:30:28;17.80;86.90
68215;DHT22;55036;52.138;5.236;2023-08-24T04:32:55;17.90;87.40
68215;DHT22;55036;52.138;5.236;2023-08-24T04:35:24;17.90;86.90
68215;DHT22;55036;52.138;5.236;2023-08-24T04:37:51;17.90;87.30
68215;DHT22;55036;52.138;5.236;2023-08-24T04:40:19;17.80;87.90
68215;DHT22;55036;52.138;5.236;2023-08-24T04:42:45;17.70;88.80
68215;DHT22;55036;52.138;5.236;2023-08-24T04:45:12;17.80;88.30
68215;DHT22;55036;52.138;5.236;2023-08-24T04:47:39;17.80;87.70
68215;DHT22;55036;52.138;5.236;2023-08-24T04:50:07;17.80;88.10
68215;DHT22;55036;52.138;5.236;2023-08-24T04:52:34;17.80;88.00
68215;DHT22;55036;52.138;5.236;2023-08-24T04:55:01;17.70;87.80
68215;DHT22;55036;52.138;5.236;2023-08-24T04:57:30;17.80;87.80
68215;DHT22;55036;52.138;5.236;2023-08-24T04:59:56;17.90;88.00
68215;DHT22;55036;52.138;5.236;2023-08-24T05:02:23;17.80;88.30
68215;DHT22;55036;52.138;5.236;2023-08-24T05:04:50;17.80;88.50
68215;DHT22;55036;52.138;5.236;2023-08-24T05:07:17;17.80;88.50
68215;DHT22;55036;52.138;5.236;2023-08-24T05:09:44;17.80;88.50
68215;DHT22;55036;52.138;5.236;2023-08-24T05:12:10;17.70;89.30
68215;DHT22;55036;52.138;5.236;2023-08-24T05:14:37;17.70;89.50
68215;DHT22;55036;52.138;5.236;2023-08-24T05:17:04;17.70;89.90
68215;DHT22;55036;52.138;5.236;2023-08-24T05:19:31;17.80;89.90
68215;DHT22;55036;52.138;5.236;2023-08-24T05:21:58;17.70;90.30
68215;DHT22;55036;52.138;5.236;2023-08-24T05:24:24;17.60;90.30
68215;DHT22;55036;52.138;5.236;2023-08-24T05:26:51;17.60;90.60
68215;DHT22;55036;52.138;5.236;2023-08-24T05:29:18;17.60;91.10
68215;DHT22;55036;52.138;5.236;2023-08-24T05:31:45;17.50;91.20
68215;DHT22;55036;52.138;5.236;2023-08-24T05:34:11;17.50;91.40
68215;DHT22;55036;52.138;5.236;2023-08-24T05:36:38;17.60;91.40
68215;DHT22;55036;52.138;5.236;2023-08-24T05:39:05;17.80;91.00
68215;DHT22;55036;52.138;5.236;2023-08-24T05:41:33;17.80;91.30
68215;DHT22;55036;52.138;5.236;2023-08-24T05:44:00;17.80;91.00
68215;DHT22;55036;52.138;5.236;2023-08-24T05:46:26;17.90;91.00
68215;DHT22;55036;52.138;5.236;2023-08-24T05:48:53;17.90;90.90
68215;DHT22;55036;52.138;5.236;2023-08-24T05:51:20;18.00;90.90
68215;DHT22;55036;52.138;5.236;2023-08-24T05:53:47;18.10;91.00
68215;DHT22;55036;52.138;5.236;2023-08-24T05:56:13;18.10;90.90
68215;DHT22;55036;52.138;5.236;2023-08-24T05:58:40;18.30;90.90
68215;DHT22;55036;52.138;5.236;2023-08-24T06:01:07;18.50;90.40
68215;DHT22;55036;52.138;5.236;2023-08-24T06:03:34;18.70;90.40
68215;DHT22;55036;52.138;5.236;2023-08-24T06:06:02;18.90;88.30
68215;DHT22;55036;52.138;5.236;2023-08-24T06:08:30;19.00;88.80
68215;DHT22;55036;52.138;5.236;2023-08-24T06:10:58;19.00;88.30
68215;DHT22;55036;52.138;5.236;2023-08-24T06:13:24;19.00;87.80
68215;DHT22;55036;52.138;5.236;2023-08-24T06:15:52;19.00;88.50
68215;DHT22;55036;52.138;5.236;2023-08-24T06:18:18;19.00;88.30
68215;DHT22;55036;52.138;5.236;2023-08-24T06:20:45;19.00;89.60
68215;DHT22;55036;52.138;5.236;2023-08-24T06:23:12;19.10;89.10
68215;DHT22;55036;52.138;5.236;2023-08-24T06:25:42;19.20;88.90
68215;DHT22;55036;52.138;5.236;2023-08-24T06:28:10;19.30;90.00
68215;DHT22;55036;52.138;5.236;2023-08-24T06:30:38;19.40;88.70
68215;DHT22;55036;52.138;5.236;2023-08-24T06:33:06;19.60;88.40
68215;DHT22;55036;52.138;5.236;2023-08-24T06:35:33;19.70;87.80
68215;DHT22;55036;52.138;5.236;2023-08-24T06:38:01;19.80;87.20
68215;DHT22;55036;52.138;5.236;2023-08-24T06:40:29;20.00;87.50
68215;DHT22;55036;52.138;5.236;2023-08-24T06:42:56;20.10;86.70
68215;DHT22;55036;52.138;5.236;2023-08-24T06:45:23;20.20;86.80
68215;DHT22;55036;52.138;5.236;2023-08-24T06:47:50;20.40;85.30
68215;DHT22;55036;52.138;5.236;2023-08-24T06:50:18;20.60;85.80
68215;DHT22;55036;52.138;5.236;2023-08-24T06:52:48;20.60;83.70
68215;DHT22;55036;52.138;5.236;2023-08-24T06:55:15;20.70;85.20
68215;DHT22;55036;52.138;5.236;2023-08-24T06:57:42;20.80;83.90
68215;DHT22;55036;52.138;5.236;2023-08-24T07:00:09;21.10;83.40
68215;DHT22;55036;52.138;5.236;2023-08-24T07:02:36;21.20;82.10
68215;DHT22;55036;52.138;5.236;2023-08-24T07:05:03;21.30;82.20
68215;DHT22;55036;52.138;5.236;2023-08-24T07:07:35;21.50;81.20
68215;DHT22;55036;52.138;5.236;2023-08-24T07:10:01;21.60;79.80
68215;DHT22;55036;52.138;5.236;2023-08-24T07:12:28;21.70;80.30
68215;DHT22;55036;52.138;5.236;2023-08-24T07:14:55;21.80;78.70
68215;DHT22;55036;52.138;5.236;2023-08-24T07:17:22;21.90;75.80
68215;DHT22;55036;52.138;5.236;2023-08-24T07:19:49;21.70;77.50
68215;DHT22;55036;52.138;5.236;2023-08-24T07:22:23;21.80;77.40
68215;DHT22;55036;52.138;5.236;2023-08-24T07:24:49;21.90;78.00
68215;DHT22;55036;52.138;5.236;2023-08-24T07:27:19;22.00;78.10
68215;DHT22;55036;52.138;5.236;2023-08-24T07:29:46;22.10;77.60
68215;DHT22;55036;52.138;5.236;2023-08-24T07:32:13;22.30;76.90
68215;DHT22;55036;52.138;5.236;2023-08-24T07:34:40;22.30;78.00
68215;DHT22;55036;52.138;5.236;2023-08-24T07:37:07;22.50;77.50
68215;DHT22;55036;52.138;5.236;2023-08-24T07:39:34;22.70;76.90
68215;DHT22;55036;52.138;5.236;2023-08-24T07:42:00;22.70;75.20
68215;DHT22;55036;52.138;5.236;2023-08-24T07:44:27;22.80;75.30
68215;DHT22;55036;52.138;5.236;2023-08-24T07:46:54;22.80;74.60
68215;DHT22;55036;52.138;5.236;2023-08-24T07:49:22;22.90;72.90
68215;DHT22;55036;52.138;5.236;2023-08-24T07:51:48;22.90;73.80
68215;DHT22;55036;52.138;5.236;2023-08-24T07:54:15;23.00;73.90
68215;DHT22;55036;52.138;5.236;2023-08-24T07:56:42;23.00;72.60
68215;DHT22;55036;52.138;5.236;2023-08-24T07:59:09;23.10;70.80
68215;DHT22;55036;52.138;5.236;2023-08-24T08:01:36;23.20;72.20
68215;DHT22;55036;52.138;5.236;2023-08-24T08:04:03;23.30;71.70
68215;DHT22;55036;52.138;5.236;2023-08-24T08:06:30;23.40;71.40
68215;DHT22;55036;52.138;5.236;2023-08-24T08:08:56;23.60;71.00
68215;DHT22;55036;52.138;5.236;2023-08-24T08:11:24;23.60;70.30
68215;DHT22;55036;52.138;5.236;2023-08-24T08:13:51;23.70;69.90
68215;DHT22;55036;52.138;5.236;2023-08-24T08:16:17;23.70;69.30
68215;DHT22;55036;52.138;5.236;2023-08-24T08:18:44;23.70;70.30
68215;DHT22;55036;52.138;5.236;2023-08-24T08:21:16;23.80;70.20
68215;DHT22;55036;52.138;5.236;2023-08-24T08:23:48;23.80;69.40
68215;DHT22;55036;52.138;5.236;2023-08-24T08:26:16;23.90;69.80
68215;DHT22;55036;52.138;5.236;2023-08-24T08:28:43;23.90;68.50
68215;DHT22;55036;52.138;5.236;2023-08-24T08:31:10;23.90;68.70
68215;DHT22;55036;52.138;5.236;2023-08-24T08:33:37;24.10;69.00
68215;DHT22;55036;52.138;5.236;2023-08-24T08:36:04;24.10;68.50
68215;DHT22;55036;52.138;5.236;2023-08-24T08:38:31;24.20;68.50
68215;DHT22;55036;52.138;5.236;2023-08-24T08:41:03;24.20;66.40
68215;DHT22;55036;52.138;5.236;2023-08-24T08:43:30;24.10;67.30
68215;DHT22;55036;52.138;5.236;2023-08-24T08:45:58;24.10;68.00
68215;DHT22;55036;52.138;5.236;2023-08-24T08:48:26;24.30;68.30
68215;DHT22;55036;52.138;5.236;2023-08-24T08:50:55;24.40;67.10
68215;DHT22;55036;52.138;5.236;2023-08-24T08:53:23;24.40;67.30
68215;DHT22;55036;52.138;5.236;2023-08-24T08:55:55;24.50;67.10
68215;DHT22;55036;52.138;5.236;2023-08-24T08:58:25;24.40;67.50
68215;DHT22;55036;52.138;5.236;2023-08-24T09:00:53;24.50;67.20
68215;DHT22;55036;52.138;5.236;2023-08-24T09:03:20;24.60;66.80
68215;DHT22;55036;52.138;5.236;2023-08-24T09:05:47;24.70;67.30
68215;DHT22;55036;52.138;5.236;2023-08-24T09:08:18;24.90;67.20
68215;DHT22;55036;52.138;5.236;2023-08-24T09:10:45;24.90;66.90
68215;DHT22;55036;52.138;5.236;2023-08-24T09:13:12;25.00;66.00
68215;DHT22;55036;52.138;5.236;2023-08-24T09:15:39;25.00;64.80
68215;DHT22;55036;52.138;5.236;2023-08-24T09:18:06;24.90;64.70
68215;DHT22;55036;52.138;5.236;2023-08-24T09:20:34;25.10;63.70
68215;DHT22;55036;52.138;5.236;2023-08-24T09:23:01;25.00;65.00
68215;DHT22;55036;52.138;5.236;2023-08-24T09:25:28;25.20;66.20
68215;DHT22;55036;52.138;5.236;2023-08-24T09:27:59;25.30;64.60
68215;DHT22;55036;52.138;5.236;2023-08-24T09:30:35;25.40;64.70
68215;DHT22;55036;52.138;5.236;2023-08-24T09:33:03;25.60;64.80
68215;DHT22;55036;52.138;5.236;2023-08-24T09:35:34;25.70;64.20
68215;DHT22;55036;52.138;5.236;2023-08-24T09:38:17;25.90;64.40
68215;DHT22;55036;52.138;5.236;2023-08-24T09:40:50;25.90;62.90
68215;DHT22;55036;52.138;5.236;2023-08-24T09:43:17;25.90;63.00
68215;DHT22;55036;52.138;5.236;2023-08-24T09:45:55;26.00;63.10
68215;DHT22;55036;52.138;5.236;2023-08-24T09:48:22;26.20;62.90
68215;DHT22;55036;52.138;5.236;2023-08-24T09:50:52;26.20;63.70
68215;DHT22;55036;52.138;5.236;2023-08-24T09:53:21;26.30;62.80
68215;DHT22;55036;52.138;5.236;2023-08-24T09:56:09;26.30;62.60
68215;DHT22;55036;52.138;5.236;2023-08-24T09:58:36;26.30;62.60
68215;DHT22;55036;52.138;5.236;2023-08-24T10:01:03;26.20;62.70
68215;DHT22;55036;52.138;5.236;2023-08-24T10:03:32;26.20;62.70
68215;DHT22;55036;52.138;5.236;2023-08-24T10:05:59;26.10;62.80
68215;DHT22;55036;52.138;5.236;2023-08-24T10:08:36;26.10;63.20
68215;DHT22;55036;52.138;5.236;2023-08-24T10:11:05;26.10;63.50
68215;DHT22;55036;52.138;5.236;2023-08-24T10:13:43;26.00;63.40
68215;DHT22;55036;52.138;5.236;2023-08-24T10:16:16;25.90;63.70
68215;DHT22;55036;52.138;5.236;2023-08-24T10:18:45;25.80;64.00
68215;DHT22;55036;52.138;5.236;2023-08-24T10:21:12;25.70;64.20
68215;DHT22;55036;52.138;5.236;2023-08-24T10:23:39;25.60;64.50
68215;DHT22;55036;52.138;5.236;2023-08-24T10:26:07;25.50;65.00
68215;DHT22;55036;52.138;5.236;2023-08-24T10:28:34;25.40;65.30
68215;DHT22;55036;52.138;5.236;2023-08-24T10:31:02;25.30;65.60
68215;DHT22;55036;52.138;5.236;2023-08-24T10:33:30;25.20;66.20
68215;DHT22;55036;52.138;5.236;2023-08-24T10:35:58;25.10;66.60
68215;DHT22;55036;52.138;5.236;2023-08-24T10:38:29;25.00;66.80
68215;DHT22;55036;52.138;5.236;2023-08-24T10:41:03;25.00;67.20
68215;DHT22;55036;52.138;5.236;2023-08-24T10:43:48;24.90;67.60
68215;DHT22;55036;52.138;5.236;2023-08-24T10:46:15;24.90;67.50
68215;DHT22;55036;52.138;5.236;2023-08-24T10:53:47;25.00;69.00
68215;DHT22;55036;52.138;5.236;2023-08-24T10:56:16;25.00;69.50
68215;DHT22;55036;52.138;5.236;2023-08-24T10:58:47;25.10;69.90
68215;DHT22;55036;52.138;5.236;2023-08-24T11:01:35;25.10;69.80
68215;DHT22;55036;52.138;5.236;2023-08-24T11:04:05;25.10;70.10
68215;DHT22;55036;52.138;5.236;2023-08-24T11:06:34;25.20;70.30
68215;DHT22;55036;52.138;5.236;2023-08-24T11:09:09;25.10;70.30
68215;DHT22;55036;52.138;5.236;2023-08-24T11:11:40;25.10;70.60
68215;DHT22;55036;52.138;5.236;2023-08-24T11:14:18;25.10;71.00
68215;DHT22;55036;52.138;5.236;2023-08-24T11:16:58;25.10;71.10
68215;DHT22;55036;52.138;5.236;2023-08-24T11:19:26;25.00;71.50
68215;DHT22;55036;52.138;5.236;2023-08-24T11:21:53;25.00;71.70
68215;DHT22;55036;52.138;5.236;2023-08-24T11:24:20;25.00;71.70
68215;DHT22;55036;52.138;5.236;2023-08-24T11:26:47;25.10;72.00
68215;DHT22;55036;52.138;5.236;2023-08-24T11:29:15;25.20;72.30
68215;DHT22;55036;52.138;5.236;2023-08-24T11:31:42;25.30;72.00
68215;DHT22;55036;52.138;5.236;2023-08-24T11:34:10;25.40;72.00
68215;DHT22;55036;52.138;5.236;2023-08-24T11:36:45;25.40;71.60
68215;DHT22;55036;52.138;5.236;2023-08-24T11:39:17;25.40;71.10
68215;DHT22;55036;52.138;5.236;2023-08-24T11:42:05;25.40;70.70
68215;DHT22;55036;52.138;5.236;2023-08-24T11:44:45;25.40;70.20
68215;DHT22;55036;52.138;5.236;2023-08-24T11:47:16;25.40;70.10
68215;DHT22;55036;52.138;5.236;2023-08-24T11:49:46;25.50;70.50
68215;DHT22;55036;52.138;5.236;2023-08-24T11:52:13;25.50;70.10
68215;DHT22;55036;52.138;5.236;2023-08-24T11:54:42;25.60;70.70
68215;DHT22;55036;52.138;5.236;2023-08-24T11:57:10;25.70;70.90
68215;DHT22;55036;52.138;5.236;2023-08-24T11:59:38;25.80;71.20
68215;DHT22;55036;52.138;5.236;2023-08-24T12:02:05;25.80;70.10
68215;DHT22;55036;52.138;5.236;2023-08-24T12:04:40;25.90;70.00
68215;DHT22;55036;52.138;5.236;2023-08-24T12:07:13;25.90;69.20
68215;DHT22;55036;52.138;5.236;2023-08-24T12:09:41;25.80;68.70
68215;DHT22;55036;52.138;5.236;2023-08-24T12:12:15;25.90;68.90
68215;DHT22;55036;52.138;5.236;2023-08-24T12:14:43;26.10;68.70
68215;DHT22;55036;52.138;5.236;2023-08-24T12:17:10;26.40;67.90
68215;DHT22;55036;52.138;5.236;2023-08-24T12:19:41;26.50;67.40
68215;DHT22;55036;52.138;5.236;2023-08-24T12:22:17;26.60;66.60
68215;DHT22;55036;52.138;5.236;2023-08-24T12:24:44;26.50;65.80
68215;DHT22;55036;52.138;5.236;2023-08-24T12:27:19;26.50;65.30
68215;DHT22;55036;52.138;5.236;2023-08-24T12:29:47;26.40;65.30
68215;DHT22;55036;52.138;5.236;2023-08-24T12:32:14;26.30;65.30
68215;DHT22;55036;52.138;5.236;2023-08-24T12:34:42;26.30;65.30
68215;DHT22;55036;52.138;5.236;2023-08-24T12:37:09;26.40;65.70
68215;DHT22;55036;52.138;5.236;2023-08-24T12:39:36;26.30;65.10
68215;DHT22;55036;52.138;5.236;2023-08-24T12:42:04;26.20;65.40
68215;DHT22;55036;52.138;5.236;2023-08-24T12:44:30;26.20;65.70
68215;DHT22;55036;52.138;5.236;2023-08-24T12:46:58;26.30;65.50
68215;DHT22;55036;52.138;5.236;2023-08-24T12:49:25;26.20;64.70
68215;DHT22;55036;52.138;5.236;2023-08-24T12:51:52;26.20;65.00
68215;DHT22;55036;52.138;5.236;2023-08-24T12:54:19;26.50;63.50
68215;DHT22;55036;52.138;5.236;2023-08-24T12:56:46;26.40;64.50
68215;DHT22;55036;52.138;5.236;2023-08-24T12:59:12;26.50;65.00
68215;DHT22;55036;52.138;5.236;2023-08-24T13:01:39;26.50;64.60
68215;DHT22;55036;52.138;5.236;2023-08-24T13:04:06;26.60;63.00
68215;DHT22;55036;52.138;5.236;2023-08-24T13:06:33;26.50;63.90
68215;DHT22;55036;52.138;5.236;2023-08-24T13:09:00;26.60;64.00
68215;DHT22;55036;52.138;5.236;2023-08-24T13:11:27;26.50;63.90
68215;DHT22;55036;52.138;5.236;2023-08-24T13:13:54;26.40;64.70
68215;DHT22;55036;52.138;5.236;2023-08-24T13:16:20;26.40;64.60
68215;DHT22;55036;52.138;5.236;2023-08-24T13:18:47;26.50;64.80
68215;DHT22;55036;52.138;5.236;2023-08-24T13:21:14;26.60;64.70
68215;DHT22;55036;52.138;5.236;2023-08-24T13:23:44;26.60;64.50
68215;DHT22;55036;52.138;5.236;2023-08-24T13:26:18;26.60;64.30
68215;DHT22;55036;52.138;5.236;2023-08-24T13:28:47;26.60;63.80
68215;DHT22;55036;52.138;5.236;2023-08-24T13:31:14;26.50;64.00
68215;DHT22;55036;52.138;5.236;2023-08-24T13:33:41;26.50;64.10
68215;DHT22;55036;52.138;5.236;2023-08-24T13:36:07;26.50;65.00
68215;DHT22;55036;52.138;5.236;2023-08-24T13:38:34;26.50;65.10
68215;DHT22;55036;52.138;5.236;2023-08-24T13:41:01;26.50;64.90
68215;DHT22;55036;52.138;5.236;2023-08-24T13:43:28;26.50;64.90
68215;DHT22;55036;52.138;5.236;2023-08-24T13:45:55;26.60;65.20
68215;DHT22;55036;52.138;5.236;2023-08-24T13:48:22;26.60;65.60
68215;DHT22;55036;52.138;5.236;2023-08-24T13:50:51;26.50;65.20
68215;DHT22;55036;52.138;5.236;2023-08-24T13:53:21;26.60;65.80
68215;DHT22;55036;52.138;5.236;2023-08-24T13:55:47;26.60;65.80
68215;DHT22;55036;52.138;5.236;2023-08-24T13:58:14;26.60;65.60
68215;DHT22;55036;52.138;5.236;2023-08-24T14:00:41;26.60;65.70
68215;DHT22;55036;52.138;5.236;2023-08-24T14:03:08;26.60;65.40
68215;DHT22;55036;52.138;5.236;2023-08-24T14:05:39;26.70;65.20
68215;DHT22;55036;52.138;5.236;2023-08-24T14:08:06;26.50;65.30
68215;DHT22;55036;52.138;5.236;2023-08-24T14:10:34;26.50;65.40
68215;DHT22;55036;52.138;5.236;2023-08-24T14:13:01;26.50;65.70
68215;DHT22;55036;52.138;5.236;2023-08-24T14:15:28;26.30;65.70
68215;DHT22;55036;52.138;5.236;2023-08-24T14:17:55;26.20;65.70
68215;DHT22;55036;52.138;5.236;2023-08-24T14:20:21;26.10;65.80
68215;DHT22;55036;52.138;5.236;2023-08-24T14:22:48;26.20;66.20
68215;DHT22;55036;52.138;5.236;2023-08-24T14:25:15;26.20;66.50
68215;DHT22;55036;52.138;5.236;2023-08-24T14:27:42;26.20;66.50
68215;DHT22;55036;52.138;5.236;2023-08-24T14:30:20;26.20;66.80
68215;DHT22;55036;52.138;5.236;2023-08-24T14:32:46;26.10;66.80
68215;DHT22;55036;52.138;5.236;2023-08-24T14:35:13;26.10;66.80
68215;DHT22;55036;52.138;5.236;2023-08-24T14:37:40;26.10;67.00
68215;DHT22;55036;52.138;5.236;2023-08-24T14:40:08;26.10;67.00
68215;DHT22;55036;52.138;5.236;2023-08-24T14:42:34;26.10;67.00
68215;DHT22;55036;52.138;5.236;2023-08-24T14:45:01;26.10;66.50
68215;DHT22;55036;52.138;5.236;2023-08-24T14:47:28;26.00;66.70
68215;DHT22;55036;52.138;5.236;2023-08-24T14:49:55;26.00;66.70
68215;DHT22;55036;52.138;5.236;2023-08-24T14:52:22;26.00;66.70
68215;DHT22;55036;52.138;5.236;2023-08-24T14:54:48;25.90;67.00
68215;DHT22;55036;52.138;5.236;2023-08-24T14:57:15;25.90;67.00
68215;DHT22;55036;52.138;5.236;2023-08-24T14:59:42;25.90;67.00
68215;DHT22;55036;52.138;5.236;2023-08-24T15:02:09;26.00;66.90
68215;DHT22;55036;52.138;5.236;2023-08-24T15:04:36;26.10;67.00
68215;DHT22;55036;52.138;5.236;2023-08-24T15:07:02;26.10;67.00
68215;DHT22;55036;52.138;5.236;2023-08-24T15:09:30;26.10;67.30
68215;DHT22;55036;52.138;5.236;2023-08-24T15:11:57;26.20;67.50
68215;DHT22;55036;52.138;5.236;2023-08-24T15:14:23;26.20;67.50
68215;DHT22;55036;52.138;5.236;2023-08-24T15:16:50;26.20;67.30
68215;DHT22;55036;52.138;5.236;2023-08-24T15:19:17;26.10;67.50
68215;DHT22;55036;52.138;5.236;2023-08-24T15:21:43;26.20;67.50
68215;DHT22;55036;52.138;5.236;2023-08-24T15:24:10;26.20;67.70
68215;DHT22;55036;52.138;5.236;2023-08-24T15:26:37;26.20;67.90
68215;DHT22;55036;52.138;5.236;2023-08-24T15:31:33;26.20;68.50
68215;DHT22;55036;52.138;5.236;2023-08-24T15:34:00;26.30;68.40
68215;DHT22;55036;52.138;5.236;2023-08-24T15:36:27;26.50;68.60
68215;DHT22;55036;52.138;5.236;2023-08-24T15:38:54;26.60;68.30
68215;DHT22;55036;52.138;5.236;2023-08-24T15:41:20;26.60;67.90
68215;DHT22;55036;52.138;5.236;2023-08-24T15:43:47;26.50;67.40
68215;DHT22;55036;52.138;5.236;2023-08-24T15:46:14;26.50;67.30
68215;DHT22;55036;52.138;5.236;2023-08-24T15:48:41;26.50;65.80
68215;DHT22;55036;52.138;5.236;2023-08-24T15:51:09;26.40;67.40
68215;DHT22;55036;52.138;5.236;2023-08-24T15:53:35;26.40;65.90
68215;DHT22;55036;52.138;5.236;2023-08-24T15:56:02;26.40;65.40
68215;DHT22;55036;52.138;5.236;2023-08-24T15:58:29;26.40;65.00
68215;DHT22;55036;52.138;5.236;2023-08-24T16:00:56;26.40;65.70
68215;DHT22;55036;52.138;5.236;2023-08-24T16:03:23;26.40;65.70
68215;DHT22;55036;52.138;5.236;2023-08-24T16:05:50;26.40;65.80
68215;DHT22;55036;52.138;5.236;2023-08-24T16:08:16;26.40;65.90
68215;DHT22;55036;52.138;5.236;2023-08-24T16:10:43;26.40;65.60
68215;DHT22;55036;52.138;5.236;2023-08-24T16:13:10;26.30;66.00
68215;DHT22;55036;52.138;5.236;2023-08-24T16:15:37;26.20;66.00
68215;DHT22;55036;52.138;5.236;2023-08-24T16:18:04;26.30;66.20
68215;DHT22;55036;52.138;5.236;2023-08-24T16:20:31;26.20;66.50